createdAt,value
2023-05-16T00:00:01.795Z,60.73
2023-05-16T00:02:31.500Z,60.86
2023-05-16T00:04:58.307Z,61.19
2023-05-16T00:07:25.103Z,60.89
2023-05-16T00:09:52.000Z,60.74
2023-05-16T00:12:19.870Z,60.99
2023-05-16T00:14:48.058Z,61.03
2023-05-16T00:17:17.678Z,60.97
2023-05-16T00:19:44.771Z,60.97
2023-05-16T00:22:11.843Z,61.11
2023-05-16T00:24:39.494Z,61.17
2023-05-16T00:27:06.813Z,61.25
2023-05-16T00:29:35.176Z,61.30
2023-05-16T00:32:01.828Z,61.21
2023-05-16T00:34:28.630Z,61.06
2023-05-16T00:36:55.455Z,60.94
2023-05-16T00:39:22.200Z,60.78
2023-05-16T00:41:49.175Z,61.00
2023-05-16T00:44:15.992Z,60.93
2023-05-16T00:46:43.626Z,61.23
2023-05-16T00:49:12.289Z,60.87
2023-05-16T00:51:39.610Z,61.04
2023-05-16T00:54:07.340Z,61.39
2023-05-16T00:56:34.781Z,61.28
2023-05-16T00:59:01.715Z,61.01
2023-05-16T01:01:28.632Z,61.22
2023-05-16T01:03:55.951Z,61.45
2023-05-16T01:06:23.034Z,61.15
2023-05-16T01:08:49.998Z,61.11
2023-05-16T01:11:28.394Z,61.27
2023-05-16T01:14:36.529Z,61.34
2023-05-16T01:17:19.162Z,61.35
2023-05-16T01:20:15.773Z,61.48
2023-05-16T01:23:03.776Z,61.43
2023-05-16T01:25:39.312Z,61.55
2023-05-16T01:28:08.094Z,61.27
2023-05-16T01:30:39.128Z,61.55
2023-05-16T01:33:06.263Z,61.50
2023-05-16T01:35:33.893Z,61.32
2023-05-16T01:38:06.536Z,61.15
2023-05-16T01:40:56.207Z,61.06
2023-05-16T01:43:34.478Z,61.27
2023-05-16T01:46:10.914Z,61.02
2023-05-16T01:48:47.520Z,61.42
2023-05-16T01:51:14.465Z,61.57
2023-05-16T01:53:42.405Z,61.50
2023-05-16T01:56:15.324Z,61.26
2023-05-16T01:58:43.565Z,61.20
2023-05-16T02:01:11.711Z,61.45
2023-05-16T02:03:38.675Z,61.53
2023-05-16T02:06:07.424Z,61.25
2023-05-16T02:08:34.148Z,61.61
2023-05-16T02:11:00.985Z,61.41
2023-05-16T02:13:27.744Z,61.33
2023-05-16T02:15:54.615Z,61.26
2023-05-16T02:18:23.600Z,61.29
2023-05-16T02:20:50.684Z,61.39
2023-05-16T02:23:17.379Z,61.32
2023-05-16T02:25:44.069Z,61.49
2023-05-16T02:28:11.090Z,61.64
2023-05-16T02:30:37.883Z,61.59
2023-05-16T02:33:04.920Z,61.35
2023-05-16T02:35:31.713Z,61.21
2023-05-16T02:38:00.009Z,61.24
2023-05-16T02:40:26.736Z,61.28
2023-05-16T02:42:53.453Z,61.32
2023-05-16T02:45:20.067Z,61.37
2023-05-16T02:47:46.975Z,61.57
2023-05-16T02:50:13.872Z,61.52
2023-05-16T02:52:41.008Z,61.21
2023-05-16T02:57:37.963Z,61.26
2023-05-16T03:00:06.337Z,61.39
2023-05-16T03:02:33.413Z,61.60
2023-05-16T03:05:00.161Z,61.61
2023-05-16T03:07:26.934Z,61.39
2023-05-16T03:09:53.876Z,61.51
2023-05-16T03:12:20.711Z,61.32
2023-05-16T03:14:47.392Z,61.64
2023-05-16T03:17:14.031Z,61.83
2023-05-16T03:19:40.780Z,61.64
2023-05-16T03:22:07.474Z,61.40
2023-05-16T03:24:34.244Z,61.78
2023-05-16T03:27:01.248Z,61.47
2023-05-16T03:29:27.940Z,61.41
2023-05-16T03:31:55.251Z,61.64
2023-05-16T03:34:22.821Z,61.59
2023-05-16T03:36:50.256Z,61.45
2023-05-16T03:39:17.490Z,61.58
2023-05-16T03:41:44.542Z,61.55
2023-05-16T03:44:11.359Z,61.74
2023-05-16T03:46:38.314Z,61.50
2023-05-16T03:49:05.067Z,61.64
2023-05-16T03:51:31.901Z,61.39
2023-05-16T03:53:58.736Z,61.50
2023-05-16T03:56:26.154Z,61.49
2023-05-16T03:58:52.839Z,61.75
2023-05-16T04:01:19.545Z,61.55
2023-05-16T04:03:46.330Z,62.04
2023-05-16T04:06:13.665Z,61.64
2023-05-16T04:08:41.177Z,61.91
2023-05-16T04:11:07.898Z,61.92
2023-05-16T04:13:34.680Z,61.76
2023-05-16T04:16:01.535Z,62.00
2023-05-16T04:18:28.295Z,62.08
2023-05-16T04:20:55.072Z,62.01
2023-05-16T04:23:21.702Z,62.16
2023-05-16T04:25:48.408Z,62.07
2023-05-16T04:28:15.732Z,61.93
2023-05-16T04:30:42.765Z,62.14
2023-05-16T04:33:09.720Z,62.01
2023-05-16T04:35:37.789Z,61.87
2023-05-16T04:38:04.794Z,61.95
2023-05-16T04:40:31.560Z,62.13
2023-05-16T04:42:58.398Z,61.96
2023-05-16T04:45:25.262Z,62.06
2023-05-16T04:47:52.319Z,61.85
2023-05-16T04:50:19.068Z,61.77
2023-05-16T04:52:45.782Z,61.74
2023-05-16T04:55:12.461Z,61.94
2023-05-16T04:57:39.436Z,61.84
2023-05-16T05:00:11.985Z,61.87
2023-05-16T05:02:39.268Z,61.82
2023-05-16T05:05:07.046Z,61.68
2023-05-16T05:07:34.204Z,61.20
2023-05-16T05:10:01.222Z,61.21
2023-05-16T05:12:28.098Z,61.10
2023-05-16T05:14:54.894Z,61.41
2023-05-16T05:17:23.567Z,60.73
2023-05-16T05:19:50.538Z,60.85
2023-05-16T05:22:17.642Z,60.63
2023-05-16T05:24:44.358Z,60.62
2023-05-16T05:27:11.007Z,60.54
2023-05-16T05:29:37.786Z,60.95
2023-05-16T05:32:04.999Z,61.13
2023-05-16T05:34:32.110Z,60.86
2023-05-16T05:36:59.164Z,61.04
2023-05-16T05:39:26.421Z,60.94
2023-05-16T05:41:53.086Z,61.08
2023-05-16T05:44:19.785Z,60.95
2023-05-16T05:46:46.930Z,60.79
2023-05-16T05:49:14.001Z,60.90
2023-05-16T05:51:41.134Z,60.74
2023-05-16T05:54:08.303Z,60.93
2023-05-16T05:56:35.465Z,61.03
2023-05-16T05:59:02.263Z,61.07
2023-05-16T06:04:17.877Z,61.15
2023-05-16T06:06:44.930Z,61.25
2023-05-16T06:09:12.780Z,60.81
2023-05-16T06:11:39.974Z,60.94
2023-05-16T06:14:06.824Z,60.95
2023-05-16T06:16:33.854Z,60.91
2023-05-16T06:19:00.954Z,60.99
2023-05-16T06:21:28.279Z,61.02
2023-05-16T06:23:55.228Z,60.90
2023-05-16T06:26:28.540Z,61.09
2023-05-16T06:28:55.558Z,60.74
2023-05-16T06:31:22.549Z,61.24
2023-05-16T06:33:49.719Z,60.84
2023-05-16T06:36:16.652Z,61.24
2023-05-16T06:38:43.708Z,61.21
2023-05-16T06:41:10.646Z,60.86
2023-05-16T06:43:37.599Z,60.95
2023-05-16T06:46:04.456Z,61.14
2023-05-16T06:48:31.636Z,60.87
2023-05-16T06:50:58.666Z,60.84
2023-05-16T06:53:26.395Z,61.18
2023-05-16T06:55:53.834Z,60.77
2023-05-16T06:58:20.877Z,60.88
2023-05-16T07:00:50.429Z,61.00
2023-05-16T07:03:17.393Z,61.07
2023-05-16T07:05:44.381Z,61.10
2023-05-16T07:08:12.358Z,60.80
2023-05-16T07:10:39.923Z,60.93
2023-05-16T07:13:07.337Z,60.92
2023-05-16T07:15:36.793Z,60.65
2023-05-16T07:18:03.908Z,60.62
2023-05-16T07:20:30.954Z,60.76
2023-05-16T07:23:01.639Z,60.60
2023-05-16T07:25:29.338Z,60.72
2023-05-16T07:27:58.464Z,60.56
2023-05-16T07:30:25.789Z,60.85
2023-05-16T07:32:52.761Z,60.44
2023-05-16T07:35:19.711Z,60.61
2023-05-16T07:37:46.526Z,60.42
2023-05-16T07:40:14.612Z,60.76
2023-05-16T07:42:41.585Z,60.42
2023-05-16T07:45:11.310Z,60.33
2023-05-16T07:47:38.350Z,60.61
2023-05-16T07:50:05.620Z,60.30
2023-05-16T07:52:32.409Z,60.31
2023-05-16T07:54:59.367Z,60.28
2023-05-16T07:57:27.316Z,60.44
2023-05-16T07:59:54.431Z,60.26
2023-05-16T08:02:24.856Z,60.65
2023-05-16T08:04:52.116Z,60.16
2023-05-16T08:07:19.007Z,60.51
2023-05-16T08:09:48.417Z,60.45
2023-05-16T08:12:15.430Z,60.18
2023-05-16T08:14:42.370Z,60.25
2023-05-16T08:17:09.156Z,60.61
2023-05-16T08:19:36.303Z,60.20
2023-05-16T08:22:05.595Z,60.27
2023-05-16T08:24:32.548Z,60.21
2023-05-16T08:26:59.362Z,60.28
2023-05-16T08:29:26.743Z,60.30
2023-05-16T08:31:53.753Z,60.19
2023-05-16T08:34:20.814Z,60.30
2023-05-16T08:36:48.207Z,60.16
2023-05-16T08:39:15.253Z,60.27
2023-05-16T08:41:42.088Z,59.55
2023-05-16T08:44:10.514Z,59.52
2023-05-16T08:46:39.353Z,59.79
2023-05-16T08:49:08.084Z,59.82
2023-05-16T08:51:35.703Z,59.94
2023-05-16T08:54:09.873Z,59.91
2023-05-16T08:56:38.329Z,59.86
2023-05-16T08:59:05.152Z,60.01
2023-05-16T09:01:32.709Z,59.83
2023-05-16T09:04:00.921Z,59.67
2023-05-16T09:06:28.409Z,59.95
2023-05-16T09:08:56.495Z,59.78
2023-05-16T09:11:23.901Z,60.08
2023-05-16T09:13:51.159Z,59.65
2023-05-16T09:16:22.243Z,59.81
2023-05-16T09:18:57.946Z,59.94
2023-05-16T09:21:32.081Z,59.76
2023-05-16T09:24:06.604Z,59.95
2023-05-16T09:26:38.739Z,59.80
2023-05-16T09:29:14.744Z,59.73
2023-05-16T09:31:41.743Z,59.63
2023-05-16T09:34:11.422Z,59.92
2023-05-16T09:36:42.108Z,59.84
2023-05-16T09:39:11.466Z,59.85
2023-05-16T09:41:43.871Z,59.88
2023-05-16T09:44:15.557Z,59.78
2023-05-16T09:46:43.232Z,59.63
2023-05-16T09:49:18.811Z,59.89
2023-05-16T09:51:46.541Z,59.72
2023-05-16T09:54:13.427Z,59.79
2023-05-16T09:56:50.837Z,59.58
2023-05-16T09:59:22.105Z,59.49
2023-05-16T10:01:51.553Z,59.48
2023-05-16T10:04:20.960Z,59.72
2023-05-16T10:06:54.924Z,59.25
2023-05-16T10:09:26.934Z,58.93
2023-05-16T10:12:02.888Z,58.94
2023-05-16T10:14:35.347Z,59.00
2023-05-16T10:17:07.815Z,59.30
2023-05-16T10:19:43.621Z,59.13
2023-05-16T10:22:19.161Z,59.40
2023-05-16T10:25:01.183Z,59.10
2023-05-16T10:27:31.240Z,59.11
2023-05-16T10:29:59.120Z,59.27
2023-05-16T10:32:29.965Z,59.16
2023-05-16T10:35:03.706Z,59.44
2023-05-16T10:37:36.735Z,59.20
2023-05-16T10:40:19.972Z,59.37
2023-05-16T10:42:59.639Z,58.97
2023-05-16T10:45:29.461Z,58.93
2023-05-16T10:48:11.812Z,58.95
2023-05-16T10:50:54.615Z,59.17
2023-05-16T10:53:35.610Z,59.33
2023-05-16T10:56:06.343Z,59.31
2023-05-16T10:58:41.240Z,59.30
2023-05-16T11:01:27.105Z,59.13
2023-05-16T11:04:00.466Z,58.93
2023-05-16T11:06:45.239Z,59.01
2023-05-16T11:09:13.567Z,59.12
2023-05-16T11:11:55.551Z,59.07
2023-05-16T11:14:26.815Z,59.37
2023-05-16T11:17:24.021Z,59.15
2023-05-16T11:19:59.797Z,58.84
2023-05-16T11:22:33.897Z,59.01
2023-05-16T11:25:13.746Z,59.07
2023-05-16T11:27:46.913Z,58.75
2023-05-16T11:30:19.473Z,58.67
2023-05-16T11:32:51.059Z,58.54
2023-05-16T11:35:21.500Z,59.01
2023-05-16T11:37:59.415Z,58.46
2023-05-16T11:40:31.944Z,59.04
2023-05-16T11:43:04.684Z,58.69
2023-05-16T11:45:35.853Z,58.98
2023-05-16T11:48:28.701Z,58.69
2023-05-16T11:51:09.622Z,58.58
2023-05-16T11:53:39.841Z,58.83
2023-05-16T11:56:13.180Z,58.53
2023-05-16T11:58:41.893Z,58.43
2023-05-16T12:01:13.991Z,58.43
2023-05-16T12:03:41.324Z,58.81
2023-05-16T12:06:19.909Z,58.50
2023-05-16T12:08:55.818Z,58.50
2023-05-16T12:11:25.948Z,58.67
2023-05-16T12:13:54.346Z,58.66
2023-05-16T12:16:23.911Z,58.95
2023-05-16T12:18:51.510Z,59.02
2023-05-16T12:21:21.863Z,58.74
2023-05-16T12:24:00.658Z,58.81
2023-05-16T12:26:33.736Z,58.39
2023-05-16T12:29:03.782Z,58.52
2023-05-16T12:31:32.810Z,58.34
2023-05-16T12:34:04.480Z,58.41
2023-05-16T12:36:37.064Z,58.50
2023-05-16T12:39:09.517Z,58.86
2023-05-16T12:41:44.560Z,58.54
2023-05-16T12:44:19.609Z,58.60
2023-05-16T12:46:56.515Z,58.48
2023-05-16T12:49:32.836Z,58.34
2023-05-16T12:52:11.356Z,58.09
2023-05-16T12:54:51.356Z,58.17
2023-05-16T12:57:22.937Z,57.89
2023-05-16T12:59:52.842Z,57.49
2023-05-16T13:02:30.666Z,57.29
2023-05-16T13:04:57.773Z,57.09
2023-05-16T13:07:26.797Z,57.34
2023-05-16T13:09:53.603Z,57.67
2023-05-16T13:12:21.875Z,57.54
2023-05-16T13:14:48.809Z,58.04
2023-05-16T13:17:15.770Z,58.01
2023-05-16T13:19:42.638Z,58.21
2023-05-16T13:22:09.448Z,58.11
2023-05-16T13:24:36.521Z,58.03
2023-05-16T13:27:03.411Z,58.10
2023-05-16T13:29:30.877Z,57.99
2023-05-16T13:32:00.808Z,58.18
2023-05-16T13:34:27.703Z,58.04
2023-05-16T13:36:55.081Z,58.17
2023-05-16T13:39:22.571Z,58.08
2023-05-16T13:41:49.743Z,58.30
2023-05-16T13:44:19.563Z,58.19
2023-05-16T13:46:46.858Z,58.32
2023-05-16T13:49:13.630Z,58.23
2023-05-16T13:51:45.024Z,58.07
2023-05-16T13:54:14.026Z,58.15
2023-05-16T13:56:40.951Z,58.21
2023-05-16T13:59:10.183Z,58.03
2023-05-16T14:01:38.476Z,58.16
2023-05-16T14:04:06.207Z,58.56
2023-05-16T14:06:37.331Z,58.48
2023-05-16T14:09:07.110Z,58.41
2023-05-16T14:11:34.400Z,58.07
2023-05-16T14:14:01.869Z,57.78
2023-05-16T14:16:47.509Z,58.26
2023-05-16T14:19:31.734Z,57.84
2023-05-16T14:22:08.969Z,57.89
2023-05-16T14:24:59.263Z,57.60
2023-05-16T14:27:32.101Z,57.73
2023-05-16T14:30:03.004Z,57.74
2023-05-16T14:32:37.510Z,57.73
2023-05-16T14:35:21.014Z,57.51
2023-05-16T14:37:50.809Z,57.39
2023-05-16T14:43:26.420Z,57.53
2023-05-16T14:46:17.828Z,57.34
2023-05-16T14:48:47.901Z,57.42
2023-05-16T14:51:17.410Z,57.48
2023-05-16T14:53:46.757Z,57.45
2023-05-16T14:56:14.412Z,57.42
2023-05-16T14:58:59.115Z,57.43
2023-05-16T15:01:51.655Z,57.44
2023-05-16T15:04:38.525Z,57.77
2023-05-16T15:07:06.743Z,57.63
2023-05-16T15:09:39.895Z,57.65
2023-05-16T15:12:11.238Z,57.63
2023-05-16T15:14:43.680Z,57.93
2023-05-16T15:17:17.404Z,57.60
2023-05-16T15:19:59.226Z,57.71
2023-05-16T15:22:35.380Z,57.77
2023-05-16T15:25:05.269Z,57.74
2023-05-16T15:27:44.425Z,57.85
2023-05-16T15:30:17.828Z,57.91
2023-05-16T15:32:56.301Z,57.61
2023-05-16T15:38:06.518Z,57.98
2023-05-16T15:40:36.853Z,58.15
2023-05-16T15:43:17.280Z,57.80
2023-05-16T15:46:19.813Z,57.74
2023-05-16T15:48:57.539Z,57.69
2023-05-16T15:51:35.571Z,57.46
2023-05-16T15:54:05.784Z,57.57
2023-05-16T15:56:34.952Z,57.28
2023-05-16T15:59:02.956Z,57.00
2023-05-16T16:01:30.670Z,57.39
2023-05-16T16:04:02.437Z,57.42
2023-05-16T16:06:33.896Z,57.10
2023-05-16T16:09:03.213Z,57.28
2023-05-16T16:11:31.565Z,57.51
2023-05-16T16:13:58.711Z,57.15
2023-05-16T16:16:28.774Z,57.26
2023-05-16T16:18:55.930Z,57.62
2023-05-16T16:21:23.932Z,57.44
2023-05-16T16:23:51.276Z,57.72
2023-05-16T16:26:18.488Z,57.73
2023-05-16T16:28:45.722Z,57.82
2023-05-16T16:31:16.445Z,57.70
2023-05-16T16:33:44.982Z,57.87
2023-05-16T16:36:13.391Z,57.96
2023-05-16T16:38:42.693Z,57.87
2023-05-16T16:41:10.505Z,57.70
2023-05-16T16:43:40.189Z,57.71
2023-05-16T16:46:08.330Z,57.88
2023-05-16T16:48:36.500Z,57.89
2023-05-16T16:51:03.790Z,57.90
2023-05-16T16:53:30.887Z,57.98
2023-05-16T16:55:57.846Z,57.82
2023-05-16T16:58:26.602Z,57.78
2023-05-16T17:00:54.411Z,57.74
2023-05-16T17:03:21.853Z,57.93
2023-05-16T17:05:53.319Z,58.06
2023-05-16T17:08:21.971Z,58.08
2023-05-16T17:10:51.556Z,57.60
2023-05-16T17:13:21.037Z,57.54
2023-05-16T17:15:55.070Z,57.17
2023-05-16T17:18:34.633Z,57.40
2023-05-16T17:21:04.349Z,57.17
2023-05-16T17:23:34.521Z,57.13
2023-05-16T17:26:05.268Z,56.91
2023-05-16T17:28:42.946Z,57.09
2023-05-16T17:31:13.279Z,57.20
2023-05-16T17:33:43.070Z,57.26
2023-05-16T17:36:11.837Z,56.96
2023-05-16T17:38:41.381Z,57.11
2023-05-16T17:41:08.232Z,57.04
2023-05-16T17:43:37.851Z,57.28
2023-05-16T17:46:06.971Z,57.17
2023-05-16T17:48:33.732Z,57.17
2023-05-16T17:51:01.956Z,57.06
2023-05-16T17:53:29.700Z,57.31
2023-05-16T17:55:56.907Z,57.57
2023-05-16T17:58:24.203Z,57.44
2023-05-16T18:00:51.066Z,57.46
2023-05-16T18:03:18.503Z,57.70
2023-05-16T18:05:45.696Z,57.33
2023-05-16T18:08:15.139Z,57.83
2023-05-16T18:10:51.757Z,57.87
2023-05-16T18:13:19.951Z,57.78
2023-05-16T18:15:49.555Z,58.08
2023-05-16T18:18:17.953Z,57.88
2023-05-16T18:20:46.114Z,58.10
2023-05-16T18:23:13.377Z,57.85
2023-05-16T18:25:54.056Z,58.20
2023-05-16T18:28:21.716Z,58.08
2023-05-16T18:30:49.493Z,58.14
2023-05-16T18:33:16.920Z,58.45
2023-05-16T18:35:43.978Z,58.24
2023-05-16T18:38:20.129Z,58.39
2023-05-16T18:40:58.642Z,58.58
2023-05-16T18:43:25.558Z,58.29
2023-05-16T18:45:52.516Z,58.34
2023-05-16T18:48:20.166Z,58.25
2023-05-16T18:50:50.245Z,58.49
2023-05-16T18:53:23.444Z,58.50
2023-05-16T18:55:50.948Z,58.48
2023-05-16T18:58:17.755Z,58.48
2023-05-16T19:00:45.176Z,58.49
2023-05-16T19:03:13.523Z,58.69
2023-05-16T19:05:40.829Z,58.80
2023-05-16T19:08:07.696Z,58.85
2023-05-16T19:10:38.186Z,58.87
2023-05-16T19:13:08.309Z,58.99
2023-05-16T19:15:36.534Z,58.97
2023-05-16T19:18:07.790Z,58.83
2023-05-16T19:20:35.671Z,58.78
2023-05-16T19:23:03.495Z,59.07
2023-05-16T19:25:30.698Z,59.13
2023-05-16T19:27:57.534Z,59.10
2023-05-16T19:30:25.018Z,59.10
2023-05-16T19:32:52.013Z,59.04
2023-05-16T19:35:19.765Z,58.84
2023-05-16T19:37:46.930Z,59.25
2023-05-16T19:40:16.914Z,58.99
2023-05-16T19:42:44.391Z,59.27
2023-05-16T19:45:13.871Z,59.28
2023-05-16T19:47:43.855Z,58.24
2023-05-16T19:50:13.702Z,57.87
2023-05-16T19:52:42.710Z,58.04
2023-05-16T19:55:19.490Z,58.17
2023-05-16T19:57:46.858Z,57.90
2023-05-16T20:00:21.775Z,57.99
2023-05-16T20:06:15.235Z,58.07
2023-05-16T20:08:42.695Z,58.16
2023-05-16T20:11:09.924Z,57.81
2023-05-16T20:13:41.644Z,57.71
2023-05-16T20:18:51.496Z,57.65
2023-05-16T20:21:18.630Z,57.52
2023-05-16T20:23:45.319Z,57.91
2023-05-16T20:26:14.898Z,58.20
2023-05-16T20:28:42.151Z,57.74
2023-05-16T20:31:09.189Z,57.94
2023-05-16T20:33:36.226Z,57.74
2023-05-16T20:36:03.493Z,57.80
2023-05-16T20:38:30.410Z,57.54
2023-05-16T20:40:57.324Z,57.70
2023-05-16T20:43:26.525Z,57.53
2023-05-16T20:45:53.589Z,57.64
2023-05-16T20:48:21.046Z,57.27
2023-05-16T20:50:48.094Z,57.35
2023-05-16T20:53:15.073Z,57.69
2023-05-16T20:55:41.953Z,57.55
2023-05-16T20:58:08.978Z,57.69
2023-05-16T21:00:35.883Z,57.69
2023-05-16T21:03:03.160Z,57.61
2023-05-16T21:05:30.235Z,57.75
2023-05-16T21:07:56.920Z,57.77
2023-05-16T21:10:23.635Z,58.05
2023-05-16T21:12:50.492Z,58.00
2023-05-16T21:15:17.347Z,58.32
2023-05-16T21:17:44.137Z,58.39
2023-05-16T21:20:11.316Z,58.30
2023-05-16T21:22:38.066Z,58.57
2023-05-16T21:25:05.735Z,58.23
2023-05-16T21:27:33.050Z,58.58
2023-05-16T21:29:59.898Z,58.51
2023-05-16T21:32:32.021Z,58.89
2023-05-16T21:35:01.115Z,58.65
2023-05-16T21:37:27.863Z,58.79
2023-05-16T21:39:55.082Z,58.92
2023-05-16T21:42:21.897Z,59.14
2023-05-16T21:44:48.878Z,59.05
2023-05-16T21:47:15.567Z,58.84
2023-05-16T21:49:42.267Z,59.26
2023-05-16T21:52:09.138Z,59.37
2023-05-16T21:54:36.009Z,58.86
2023-05-16T21:57:02.740Z,59.44
2023-05-16T21:59:29.469Z,59.12
2023-05-16T22:01:56.230Z,59.40
2023-05-16T22:04:23.762Z,59.47
2023-05-16T22:06:50.699Z,59.52
2023-05-16T22:09:17.292Z,59.66
2023-05-16T22:11:43.975Z,59.53
2023-05-16T22:14:10.715Z,59.43
2023-05-16T22:16:37.693Z,59.43
2023-05-16T22:19:04.391Z,59.53
2023-05-16T22:21:31.277Z,59.90
2023-05-16T22:23:57.996Z,59.90
2023-05-16T22:26:24.805Z,59.61
2023-05-16T22:28:51.614Z,59.69
2023-05-16T22:31:18.312Z,60.06
2023-05-16T22:33:45.329Z,59.67
2023-05-16T22:36:12.056Z,59.69
2023-05-16T22:38:38.755Z,59.81
2023-05-16T22:41:05.551Z,59.89
2023-05-16T22:43:32.631Z,59.83
2023-05-16T22:46:02.220Z,60.13
2023-05-16T22:48:30.096Z,59.71
2023-05-16T22:50:57.717Z,60.04
2023-05-16T22:53:24.372Z,59.80
2023-05-16T22:55:51.160Z,60.12
2023-05-16T22:58:17.944Z,59.91
2023-05-16T23:00:44.720Z,60.20
2023-05-16T23:03:11.698Z,60.16
2023-05-16T23:05:38.465Z,60.25
2023-05-16T23:08:06.541Z,59.74
2023-05-16T23:10:33.338Z,60.16
2023-05-16T23:13:00.119Z,60.22
2023-05-16T23:15:27.185Z,59.86
2023-05-16T23:17:54.078Z,60.05
2023-05-16T23:20:20.991Z,60.02
2023-05-16T23:22:47.810Z,60.10
2023-05-16T23:25:14.548Z,60.09
2023-05-16T23:27:41.222Z,59.98
2023-05-16T23:30:09.233Z,60.06
2023-05-16T23:32:36.603Z,60.04
2023-05-16T23:35:03.716Z,60.11
2023-05-16T23:37:31.052Z,60.04
2023-05-16T23:39:58.242Z,60.18
2023-05-16T23:42:25.109Z,60.18
2023-05-16T23:44:51.987Z,60.16
2023-05-16T23:47:18.667Z,60.34
2023-05-16T23:49:45.519Z,60.12
2023-05-16T23:52:12.469Z,60.09
2023-05-16T23:54:39.209Z,60.12
2023-05-16T23:57:05.906Z,60.24
2023-05-16T23:59:32.611Z,60.21
